sensor_id;sensor_type;location;lat;lon;timestamp;P1;durP1;ratioP1;P2;durP2;ratioP2
19877;SDS011;10101;52.204;9.910;2023-03-30T00:01:29;4.23;;;2.80;;
19877;SDS011;10101;52.204;9.910;2023-03-30T00:03:56;9.27;;;2.90;;
19877;SDS011;10101;52.204;9.910;2023-03-30T00:06:23;5.63;;;2.50;;
19877;SDS011;10101;52.204;9.910;2023-03-30T00:08:51;4.93;;;3.20;;
19877;SDS011;10101;52.204;9.910;2023-03-30T00:11:22;5.63;;;3.13;;
19877;SDS011;10101;52.204;9.910;2023-03-30T00:13:49;5.20;;;2.20;;
19877;SDS011;10101;52.204;9.910;2023-03-30T00:16:17;5.57;;;3.00;;
19877;SDS011;10101;52.204;9.910;2023-03-30T00:18:44;3.93;;;2.67;;
19877;SDS011;10101;52.204;9.910;2023-03-30T00:21:11;6.67;;;2.97;;
19877;SDS011;10101;52.204;9.910;2023-03-30T00:23:41;3.97;;;2.40;;
19877;SDS011;10101;52.204;9.910;2023-03-30T00:26:10;6.13;;;2.70;;
19877;SDS011;10101;52.204;9.910;2023-03-30T00:28:38;4.13;;;2.77;;
19877;SDS011;10101;52.204;9.910;2023-03-30T00:31:05;6.40;;;3.37;;
19877;SDS011;10101;52.204;9.910;2023-03-30T00:33:31;3.40;;;2.40;;
19877;SDS011;10101;52.204;9.910;2023-03-30T00:35:58;4.50;;;2.50;;
19877;SDS011;10101;52.204;9.910;2023-03-30T00:38:25;5.27;;;2.77;;
19877;SDS011;10101;52.204;9.910;2023-03-30T00:40:54;3.93;;;2.50;;
19877;SDS011;10101;52.204;9.910;2023-03-30T00:43:22;4.50;;;2.57;;
19877;SDS011;10101;52.204;9.910;2023-03-30T00:45:51;5.17;;;2.50;;
19877;SDS011;10101;52.204;9.910;2023-03-30T00:48:21;4.47;;;2.30;;
19877;SDS011;10101;52.204;9.910;2023-03-30T00:50:51;5.37;;;2.53;;
19877;SDS011;10101;52.204;9.910;2023-03-30T00:53:21;6.13;;;2.63;;
19877;SDS011;10101;52.204;9.910;2023-03-30T00:55:51;5.13;;;3.20;;
19877;SDS011;10101;52.204;9.910;2023-03-30T00:58:19;6.47;;;3.10;;
19877;SDS011;10101;52.204;9.910;2023-03-30T01:00:47;5.50;;;2.50;;
19877;SDS011;10101;52.204;9.910;2023-03-30T01:03:17;4.93;;;3.20;;
19877;SDS011;10101;52.204;9.910;2023-03-30T01:05:47;4.37;;;3.10;;
19877;SDS011;10101;52.204;9.910;2023-03-30T01:08:16;4.60;;;2.70;;
19877;SDS011;10101;52.204;9.910;2023-03-30T01:10:44;4.63;;;2.80;;
19877;SDS011;10101;52.204;9.910;2023-03-30T01:13:12;3.53;;;2.77;;
19877;SDS011;10101;52.204;9.910;2023-03-30T01:15:42;4.97;;;2.60;;
19877;SDS011;10101;52.204;9.910;2023-03-30T01:18:23;5.77;;;2.77;;
19877;SDS011;10101;52.204;9.910;2023-03-30T01:24:02;5.93;;;2.63;;
19877;SDS011;10101;52.204;9.910;2023-03-30T01:26:55;6.03;;;2.80;;
19877;SDS011;10101;52.204;9.910;2023-03-30T01:29:28;4.13;;;2.73;;
19877;SDS011;10101;52.204;9.910;2023-03-30T01:32:24;4.77;;;3.00;;
19877;SDS011;10101;52.204;9.910;2023-03-30T01:35:10;6.43;;;3.43;;
19877;SDS011;10101;52.204;9.910;2023-03-30T01:40:40;4.83;;;3.17;;
19877;SDS011;10101;52.204;9.910;2023-03-30T01:43:14;4.17;;;2.87;;
19877;SDS011;10101;52.204;9.910;2023-03-30T01:45:43;4.73;;;2.77;;
19877;SDS011;10101;52.204;9.910;2023-03-30T01:48:14;4.13;;;2.60;;
19877;SDS011;10101;52.204;9.910;2023-03-30T01:50:48;3.87;;;2.70;;
19877;SDS011;10101;52.204;9.910;2023-03-30T01:53:19;4.40;;;2.57;;
19877;SDS011;10101;52.204;9.910;2023-03-30T01:55:56;4.07;;;2.67;;
19877;SDS011;10101;52.204;9.910;2023-03-30T01:58:27;4.20;;;2.60;;
19877;SDS011;10101;52.204;9.910;2023-03-30T02:00:59;3.93;;;2.47;;
19877;SDS011;10101;52.204;9.910;2023-03-30T02:03:27;5.13;;;3.30;;
19877;SDS011;10101;52.204;9.910;2023-03-30T02:05:57;6.73;;;3.50;;
19877;SDS011;10101;52.204;9.910;2023-03-30T02:08:31;6.50;;;3.47;;
19877;SDS011;10101;52.204;9.910;2023-03-30T02:11:01;4.23;;;2.93;;
19877;SDS011;10101;52.204;9.910;2023-03-30T02:13:29;5.50;;;2.63;;
19877;SDS011;10101;52.204;9.910;2023-03-30T02:15:58;6.37;;;2.83;;
19877;SDS011;10101;52.204;9.910;2023-03-30T02:18:29;4.47;;;2.77;;
19877;SDS011;10101;52.204;9.910;2023-03-30T02:20:56;5.47;;;2.77;;
19877;SDS011;10101;52.204;9.910;2023-03-30T02:23:27;4.57;;;2.40;;
19877;SDS011;10101;52.204;9.910;2023-03-30T02:25:57;3.83;;;2.40;;
19877;SDS011;10101;52.204;9.910;2023-03-30T02:28:26;5.13;;;2.33;;
19877;SDS011;10101;52.204;9.910;2023-03-30T02:30:52;3.27;;;2.30;;
19877;SDS011;10101;52.204;9.910;2023-03-30T02:33:22;3.03;;;1.83;;
19877;SDS011;10101;52.204;9.910;2023-03-30T02:35:59;3.07;;;1.90;;
19877;SDS011;10101;52.204;9.910;2023-03-30T02:38:51;3.90;;;2.30;;
19877;SDS011;10101;52.204;9.910;2023-03-30T02:41:33;5.27;;;2.20;;
19877;SDS011;10101;52.204;9.910;2023-03-30T02:44:13;6.10;;;2.37;;
19877;SDS011;10101;52.204;9.910;2023-03-30T02:46:55;4.30;;;2.07;;
19877;SDS011;10101;52.204;9.910;2023-03-30T02:49:31;3.40;;;1.97;;
19877;SDS011;10101;52.204;9.910;2023-03-30T02:52:12;2.83;;;2.00;;
19877;SDS011;10101;52.204;9.910;2023-03-30T02:54:49;2.93;;;1.80;;
19877;SDS011;10101;52.204;9.910;2023-03-30T02:57:30;2.47;;;1.80;;
19877;SDS011;10101;52.204;9.910;2023-03-30T03:00:02;5.83;;;2.30;;
19877;SDS011;10101;52.204;9.910;2023-03-30T03:02:37;2.33;;;1.87;;
19877;SDS011;10101;52.204;9.910;2023-03-30T03:05:07;4.73;;;2.00;;
19877;SDS011;10101;52.204;9.910;2023-03-30T03:07:36;3.67;;;1.73;;
19877;SDS011;10101;52.204;9.910;2023-03-30T03:10:05;3.93;;;2.00;;
19877;SDS011;10101;52.204;9.910;2023-03-30T03:12:33;5.30;;;1.90;;
19877;SDS011;10101;52.204;9.910;2023-03-30T03:15:01;4.10;;;2.17;;
19877;SDS011;10101;52.204;9.910;2023-03-30T03:17:29;2.27;;;1.70;;
19877;SDS011;10101;52.204;9.910;2023-03-30T03:19:58;5.43;;;2.33;;
19877;SDS011;10101;52.204;9.910;2023-03-30T03:22:25;3.37;;;1.83;;
19877;SDS011;10101;52.204;9.910;2023-03-30T03:24:52;5.03;;;2.10;;
19877;SDS011;10101;52.204;9.910;2023-03-30T03:27:19;2.23;;;1.80;;
19877;SDS011;10101;52.204;9.910;2023-03-30T03:29:45;4.17;;;1.67;;
19877;SDS011;10101;52.204;9.910;2023-03-30T03:32:14;3.57;;;1.97;;
19877;SDS011;10101;52.204;9.910;2023-03-30T03:34:41;2.63;;;1.50;;
19877;SDS011;10101;52.204;9.910;2023-03-30T03:37:09;3.20;;;1.90;;
19877;SDS011;10101;52.204;9.910;2023-03-30T03:39:36;5.07;;;2.13;;
19877;SDS011;10101;52.204;9.910;2023-03-30T03:42:03;3.33;;;1.77;;
19877;SDS011;10101;52.204;9.910;2023-03-30T03:44:31;3.07;;;2.13;;
19877;SDS011;10101;52.204;9.910;2023-03-30T03:46:58;4.40;;;1.87;;
19877;SDS011;10101;52.204;9.910;2023-03-30T03:49:26;6.70;;;2.10;;
19877;SDS011;10101;52.204;9.910;2023-03-30T03:51:53;6.93;;;2.13;;
19877;SDS011;10101;52.204;9.910;2023-03-30T03:54:19;4.87;;;2.13;;
19877;SDS011;10101;52.204;9.910;2023-03-30T03:56:46;4.27;;;2.00;;
19877;SDS011;10101;52.204;9.910;2023-03-30T03:59:13;3.70;;;2.10;;
19877;SDS011;10101;52.204;9.910;2023-03-30T04:01:40;4.53;;;2.37;;
19877;SDS011;10101;52.204;9.910;2023-03-30T04:04:07;3.77;;;1.57;;
19877;SDS011;10101;52.204;9.910;2023-03-30T04:06:35;2.70;;;1.70;;
19877;SDS011;10101;52.204;9.910;2023-03-30T04:09:02;2.90;;;1.60;;
19877;SDS011;10101;52.204;9.910;2023-03-30T04:11:28;2.80;;;1.60;;
19877;SDS011;10101;52.204;9.910;2023-03-30T04:13:55;2.33;;;1.57;;
19877;SDS011;10101;52.204;9.910;2023-03-30T04:16:22;2.77;;;1.70;;
19877;SDS011;10101;52.204;9.910;2023-03-30T04:18:49;4.03;;;1.90;;
19877;SDS011;10101;52.204;9.910;2023-03-30T04:21:16;3.00;;;1.60;;
19877;SDS011;10101;52.204;9.910;2023-03-30T04:23:45;2.63;;;1.50;;
19877;SDS011;10101;52.204;9.910;2023-03-30T04:26:12;3.30;;;1.50;;
19877;SDS011;10101;52.204;9.910;2023-03-30T04:28:41;4.33;;;1.80;;
19877;SDS011;10101;52.204;9.910;2023-03-30T04:31:09;2.80;;;1.60;;
19877;SDS011;10101;52.204;9.910;2023-03-30T04:33:37;5.17;;;2.07;;
19877;SDS011;10101;52.204;9.910;2023-03-30T04:36:09;2.83;;;1.73;;
19877;SDS011;10101;52.204;9.910;2023-03-30T04:38:41;3.27;;;1.60;;
19877;SDS011;10101;52.204;9.910;2023-03-30T04:41:10;4.97;;;1.53;;
19877;SDS011;10101;52.204;9.910;2023-03-30T04:43:39;7.00;;;1.83;;
19877;SDS011;10101;52.204;9.910;2023-03-30T04:46:05;2.70;;;1.43;;
19877;SDS011;10101;52.204;9.910;2023-03-30T04:48:32;2.97;;;1.70;;
19877;SDS011;10101;52.204;9.910;2023-03-30T04:50:59;2.80;;;1.67;;
19877;SDS011;10101;52.204;9.910;2023-03-30T04:53:26;2.57;;;1.30;;
19877;SDS011;10101;52.204;9.910;2023-03-30T04:55:53;4.87;;;1.50;;
19877;SDS011;10101;52.204;9.910;2023-03-30T04:58:21;3.77;;;1.80;;
19877;SDS011;10101;52.204;9.910;2023-03-30T05:00:47;6.83;;;1.50;;
19877;SDS011;10101;52.204;9.910;2023-03-30T05:03:14;2.97;;;1.70;;
19877;SDS011;10101;52.204;9.910;2023-03-30T05:05:41;2.93;;;1.77;;
19877;SDS011;10101;52.204;9.910;2023-03-30T05:08:07;2.97;;;1.50;;
19877;SDS011;10101;52.204;9.910;2023-03-30T05:10:34;4.37;;;1.43;;
19877;SDS011;10101;52.204;9.910;2023-03-30T05:13:01;2.57;;;1.70;;
19877;SDS011;10101;52.204;9.910;2023-03-30T05:15:29;3.40;;;1.50;;
19877;SDS011;10101;52.204;9.910;2023-03-30T05:17:56;4.33;;;1.50;;
19877;SDS011;10101;52.204;9.910;2023-03-30T05:20:24;3.03;;;1.50;;
19877;SDS011;10101;52.204;9.910;2023-03-30T05:22:51;4.27;;;1.40;;
19877;SDS011;10101;52.204;9.910;2023-03-30T05:25:18;1.60;;;1.33;;
19877;SDS011;10101;52.204;9.910;2023-03-30T05:27:45;5.63;;;1.30;;
19877;SDS011;10101;52.204;9.910;2023-03-30T05:30:12;3.17;;;1.60;;
19877;SDS011;10101;52.204;9.910;2023-03-30T05:32:40;2.90;;;1.33;;
19877;SDS011;10101;52.204;9.910;2023-03-30T05:35:07;3.63;;;1.40;;
19877;SDS011;10101;52.204;9.910;2023-03-30T05:37:35;5.57;;;1.60;;
19877;SDS011;10101;52.204;9.910;2023-03-30T05:40:03;3.53;;;1.30;;
19877;SDS011;10101;52.204;9.910;2023-03-30T05:42:33;3.53;;;1.60;;
19877;SDS011;10101;52.204;9.910;2023-03-30T05:45:00;3.67;;;1.40;;
19877;SDS011;10101;52.204;9.910;2023-03-30T05:47:27;8.83;;;1.77;;
19877;SDS011;10101;52.204;9.910;2023-03-30T05:49:55;4.10;;;1.40;;
19877;SDS011;10101;52.204;9.910;2023-03-30T05:52:21;2.10;;;1.40;;
19877;SDS011;10101;52.204;9.910;2023-03-30T05:54:48;2.50;;;1.57;;
19877;SDS011;10101;52.204;9.910;2023-03-30T05:57:15;1.90;;;1.37;;
19877;SDS011;10101;52.204;9.910;2023-03-30T05:59:42;4.27;;;1.73;;
19877;SDS011;10101;52.204;9.910;2023-03-30T06:02:09;2.17;;;1.40;;
19877;SDS011;10101;52.204;9.910;2023-03-30T06:04:36;4.43;;;1.97;;
19877;SDS011;10101;52.204;9.910;2023-03-30T06:07:05;3.40;;;1.50;;
19877;SDS011;10101;52.204;9.910;2023-03-30T06:09:31;4.07;;;1.30;;
19877;SDS011;10101;52.204;9.910;2023-03-30T06:11:58;6.37;;;1.77;;
19877;SDS011;10101;52.204;9.910;2023-03-30T06:14:25;5.00;;;1.70;;
19877;SDS011;10101;52.204;9.910;2023-03-30T06:16:52;3.13;;;1.13;;
19877;SDS011;10101;52.204;9.910;2023-03-30T06:19:18;5.03;;;1.63;;
19877;SDS011;10101;52.204;9.910;2023-03-30T06:21:45;2.53;;;1.60;;
19877;SDS011;10101;52.204;9.910;2023-03-30T06:24:14;5.43;;;1.30;;
19877;SDS011;10101;52.204;9.910;2023-03-30T06:26:42;2.47;;;1.20;;
19877;SDS011;10101;52.204;9.910;2023-03-30T06:29:09;6.63;;;1.50;;
19877;SDS011;10101;52.204;9.910;2023-03-30T06:31:36;4.60;;;1.40;;
19877;SDS011;10101;52.204;9.910;2023-03-30T06:34:02;3.30;;;1.33;;
19877;SDS011;10101;52.204;9.910;2023-03-30T06:36:32;3.33;;;1.43;;
19877;SDS011;10101;52.204;9.910;2023-03-30T06:39:01;2.90;;;1.23;;
19877;SDS011;10101;52.204;9.910;2023-03-30T06:41:30;3.63;;;1.87;;
19877;SDS011;10101;52.204;9.910;2023-03-30T06:43:57;4.17;;;1.37;;
19877;SDS011;10101;52.204;9.910;2023-03-30T06:46:24;5.70;;;1.50;;
19877;SDS011;10101;52.204;9.910;2023-03-30T06:48:51;4.63;;;1.57;;
19877;SDS011;10101;52.204;9.910;2023-03-30T06:51:18;5.73;;;1.37;;
19877;SDS011;10101;52.204;9.910;2023-03-30T06:53:45;4.70;;;1.40;;
19877;SDS011;10101;52.204;9.910;2023-03-30T06:56:12;5.80;;;1.80;;
19877;SDS011;10101;52.204;9.910;2023-03-30T06:58:40;2.30;;;1.23;;
19877;SDS011;10101;52.204;9.910;2023-03-30T07:01:08;5.17;;;1.40;;
19877;SDS011;10101;52.204;9.910;2023-03-30T07:03:35;7.20;;;1.50;;
19877;SDS011;10101;52.204;9.910;2023-03-30T07:06:03;2.60;;;1.60;;
19877;SDS011;10101;52.204;9.910;2023-03-30T07:08:32;3.83;;;1.40;;
19877;SDS011;10101;52.204;9.910;2023-03-30T07:10:59;4.10;;;1.20;;
19877;SDS011;10101;52.204;9.910;2023-03-30T07:13:26;1.70;;;1.10;;
19877;SDS011;10101;52.204;9.910;2023-03-30T07:15:55;5.40;;;1.23;;
19877;SDS011;10101;52.204;9.910;2023-03-30T07:18:22;2.67;;;1.10;;
19877;SDS011;10101;52.204;9.910;2023-03-30T07:20:49;4.10;;;1.47;;
19877;SDS011;10101;52.204;9.910;2023-03-30T07:23:16;2.07;;;1.27;;
19877;SDS011;10101;52.204;9.910;2023-03-30T07:25:43;2.43;;;1.30;;
19877;SDS011;10101;52.204;9.910;2023-03-30T07:28:10;3.93;;;1.30;;
19877;SDS011;10101;52.204;9.910;2023-03-30T07:30:38;4.30;;;1.57;;
19877;SDS011;10101;52.204;9.910;2023-03-30T07:33:06;6.97;;;1.53;;
19877;SDS011;10101;52.204;9.910;2023-03-30T07:35:33;4.03;;;1.30;;
19877;SDS011;10101;52.204;9.910;2023-03-30T07:38:00;3.60;;;1.60;;
19877;SDS011;10101;52.204;9.910;2023-03-30T07:40:27;4.00;;;1.30;;
19877;SDS011;10101;52.204;9.910;2023-03-30T07:42:54;3.50;;;1.13;;
19877;SDS011;10101;52.204;9.910;2023-03-30T07:45:20;5.43;;;1.57;;
19877;SDS011;10101;52.204;9.910;2023-03-30T07:47:47;4.57;;;1.57;;
19877;SDS011;10101;52.204;9.910;2023-03-30T07:50:16;4.13;;;1.40;;
19877;SDS011;10101;52.204;9.910;2023-03-30T07:52:43;5.23;;;1.30;;
19877;SDS011;10101;52.204;9.910;2023-03-30T07:55:10;3.20;;;1.30;;
19877;SDS011;10101;52.204;9.910;2023-03-30T07:57:37;2.93;;;1.67;;
19877;SDS011;10101;52.204;9.910;2023-03-30T08:00:05;3.87;;;1.53;;
19877;SDS011;10101;52.204;9.910;2023-03-30T08:02:34;3.77;;;1.40;;
19877;SDS011;10101;52.204;9.910;2023-03-30T08:05:01;3.40;;;1.50;;
19877;SDS011;10101;52.204;9.910;2023-03-30T08:07:30;4.33;;;1.50;;
19877;SDS011;10101;52.204;9.910;2023-03-30T08:09:58;8.10;;;1.53;;
19877;SDS011;10101;52.204;9.910;2023-03-30T08:12:25;6.87;;;1.70;;
19877;SDS011;10101;52.204;9.910;2023-03-30T08:14:52;4.97;;;1.60;;
19877;SDS011;10101;52.204;9.910;2023-03-30T08:17:19;5.93;;;1.47;;
19877;SDS011;10101;52.204;9.910;2023-03-30T08:19:46;4.30;;;1.63;;
19877;SDS011;10101;52.204;9.910;2023-03-30T08:22:13;3.03;;;1.57;;
19877;SDS011;10101;52.204;9.910;2023-03-30T08:24:41;4.33;;;2.27;;
19877;SDS011;10101;52.204;9.910;2023-03-30T08:27:08;5.17;;;1.90;;
19877;SDS011;10101;52.204;9.910;2023-03-30T08:29:35;5.63;;;1.60;;
19877;SDS011;10101;52.204;9.910;2023-03-30T08:32:02;6.37;;;1.80;;
19877;SDS011;10101;52.204;9.910;2023-03-30T08:34:28;5.73;;;1.77;;
19877;SDS011;10101;52.204;9.910;2023-03-30T08:36:56;3.80;;;1.60;;
19877;SDS011;10101;52.204;9.910;2023-03-30T08:39:23;6.53;;;1.87;;
19877;SDS011;10101;52.204;9.910;2023-03-30T08:41:54;5.00;;;2.10;;
19877;SDS011;10101;52.204;9.910;2023-03-30T08:44:38;4.63;;;2.10;;
19877;SDS011;10101;52.204;9.910;2023-03-30T08:47:09;4.90;;;1.50;;
19877;SDS011;10101;52.204;9.910;2023-03-30T08:49:39;2.87;;;1.47;;
19877;SDS011;10101;52.204;9.910;2023-03-30T08:52:10;8.00;;;1.80;;
19877;SDS011;10101;52.204;9.910;2023-03-30T08:54:41;6.83;;;2.10;;
19877;SDS011;10101;52.204;9.910;2023-03-30T08:57:11;4.80;;;1.60;;
19877;SDS011;10101;52.204;9.910;2023-03-30T08:59:44;8.17;;;1.80;;
19877;SDS011;10101;52.204;9.910;2023-03-30T09:02:17;8.50;;;1.77;;
19877;SDS011;10101;52.204;9.910;2023-03-30T09:04:51;5.27;;;1.77;;
19877;SDS011;10101;52.204;9.910;2023-03-30T09:07:22;4.03;;;2.00;;
19877;SDS011;10101;52.204;9.910;2023-03-30T09:09:51;4.93;;;1.30;;
19877;SDS011;10101;52.204;9.910;2023-03-30T09:12:23;4.27;;;1.40;;
19877;SDS011;10101;52.204;9.910;2023-03-30T09:14:58;6.20;;;1.80;;
19877;SDS011;10101;52.204;9.910;2023-03-30T09:17:29;4.90;;;1.67;;
19877;SDS011;10101;52.204;9.910;2023-03-30T09:19:59;2.20;;;1.30;;
19877;SDS011;10101;52.204;9.910;2023-03-30T09:22:32;4.90;;;1.40;;
19877;SDS011;10101;52.204;9.910;2023-03-30T09:25:04;3.67;;;1.40;;
19877;SDS011;10101;52.204;9.910;2023-03-30T09:27:41;3.97;;;1.50;;
19877;SDS011;10101;52.204;9.910;2023-03-30T09:30:17;6.83;;;1.57;;
19877;SDS011;10101;52.204;9.910;2023-03-30T09:32:48;3.13;;;1.40;;
19877;SDS011;10101;52.204;9.910;2023-03-30T09:35:23;2.40;;;1.40;;
19877;SDS011;10101;52.204;9.910;2023-03-30T09:37:57;3.07;;;1.30;;
19877;SDS011;10101;52.204;9.910;2023-03-30T09:40:26;7.03;;;1.73;;
19877;SDS011;10101;52.204;9.910;2023-03-30T09:43:11;5.53;;;1.50;;
19877;SDS011;10101;52.204;9.910;2023-03-30T09:45:43;4.00;;;1.43;;
19877;SDS011;10101;52.204;9.910;2023-03-30T09:48:10;4.70;;;1.47;;
19877;SDS011;10101;52.204;9.910;2023-03-30T09:50:41;1.80;;;1.53;;
19877;SDS011;10101;52.204;9.910;2023-03-30T09:53:17;4.17;;;1.40;;
19877;SDS011;10101;52.204;9.910;2023-03-30T09:55:53;2.87;;;1.50;;
19877;SDS011;10101;52.204;9.910;2023-03-30T09:58:27;6.63;;;1.30;;
19877;SDS011;10101;52.204;9.910;2023-03-30T10:01:02;4.87;;;1.40;;
19877;SDS011;10101;52.204;9.910;2023-03-30T10:03:31;5.07;;;1.50;;
19877;SDS011;10101;52.204;9.910;2023-03-30T10:06:03;3.50;;;1.20;;
19877;SDS011;10101;52.204;9.910;2023-03-30T10:08:32;2.57;;;1.20;;
19877;SDS011;10101;52.204;9.910;2023-03-30T10:11:05;3.80;;;1.50;;
19877;SDS011;10101;52.204;9.910;2023-03-30T10:13:35;5.10;;;1.07;;
19877;SDS011;10101;52.204;9.910;2023-03-30T10:16:04;4.30;;;1.60;;
19877;SDS011;10101;52.204;9.910;2023-03-30T10:18:37;2.93;;;1.67;;
19877;SDS011;10101;52.204;9.910;2023-03-30T10:21:08;4.77;;;1.70;;
19877;SDS011;10101;52.204;9.910;2023-03-30T10:23:44;3.73;;;1.80;;
19877;SDS011;10101;52.204;9.910;2023-03-30T10:26:13;4.10;;;1.53;;
19877;SDS011;10101;52.204;9.910;2023-03-30T10:28:51;4.10;;;1.80;;
19877;SDS011;10101;52.204;9.910;2023-03-30T10:31:18;5.60;;;2.20;;
19877;SDS011;10101;52.204;9.910;2023-03-30T10:33:46;3.77;;;1.80;;
19877;SDS011;10101;52.204;9.910;2023-03-30T10:36:14;7.73;;;2.00;;
19877;SDS011;10101;52.204;9.910;2023-03-30T10:38:44;9.57;;;2.20;;
19877;SDS011;10101;52.204;9.910;2023-03-30T10:41:12;6.63;;;1.93;;
19877;SDS011;10101;52.204;9.910;2023-03-30T10:43:45;8.30;;;1.27;;
19877;SDS011;10101;52.204;9.910;2023-03-30T10:46:16;4.60;;;1.47;;
19877;SDS011;10101;52.204;9.910;2023-03-30T10:48:59;4.37;;;1.83;;
19877;SDS011;10101;52.204;9.910;2023-03-30T10:51:38;2.90;;;1.43;;
19877;SDS011;10101;52.204;9.910;2023-03-30T10:54:18;5.60;;;1.87;;
19877;SDS011;10101;52.204;9.910;2023-03-30T10:56:52;5.90;;;2.00;;
19877;SDS011;10101;52.204;9.910;2023-03-30T10:59:31;6.13;;;1.80;;
19877;SDS011;10101;52.204;9.910;2023-03-30T11:02:22;4.93;;;1.00;;
19877;SDS011;10101;52.204;9.910;2023-03-30T11:05:05;0.57;;;0.53;;
19877;SDS011;10101;52.204;9.910;2023-03-30T11:07:37;4.57;;;0.87;;
19877;SDS011;10101;52.204;9.910;2023-03-30T11:10:10;2.90;;;0.80;;
19877;SDS011;10101;52.204;9.910;2023-03-30T11:12:40;3.30;;;0.97;;
19877;SDS011;10101;52.204;9.910;2023-03-30T11:15:12;5.90;;;1.03;;
19877;SDS011;10101;52.204;9.910;2023-03-30T11:17:46;4.73;;;0.77;;
19877;SDS011;10101;52.204;9.910;2023-03-30T11:20:20;6.43;;;1.20;;
19877;SDS011;10101;52.204;9.910;2023-03-30T11:22:53;3.83;;;1.00;;
19877;SDS011;10101;52.204;9.910;2023-03-30T11:25:23;4.57;;;0.90;;
19877;SDS011;10101;52.204;9.910;2023-03-30T11:27:54;2.33;;;0.90;;
19877;SDS011;10101;52.204;9.910;2023-03-30T11:30:25;5.20;;;1.03;;
19877;SDS011;10101;52.204;9.910;2023-03-30T11:32:57;5.03;;;1.57;;
19877;SDS011;10101;52.204;9.910;2023-03-30T11:35:33;3.57;;;1.03;;
19877;SDS011;10101;52.204;9.910;2023-03-30T11:38:06;2.03;;;0.90;;
19877;SDS011;10101;52.204;9.910;2023-03-30T11:40:37;7.67;;;1.03;;
19877;SDS011;10101;52.204;9.910;2023-03-30T11:43:09;3.50;;;0.87;;
19877;SDS011;10101;52.204;9.910;2023-03-30T11:45:41;4.90;;;0.90;;
19877;SDS011;10101;52.204;9.910;2023-03-30T11:48:25;4.93;;;1.33;;
19877;SDS011;10101;52.204;9.910;2023-03-30T11:51:08;4.17;;;0.93;;
19877;SDS011;10101;52.204;9.910;2023-03-30T11:53:49;2.90;;;1.00;;
19877;SDS011;10101;52.204;9.910;2023-03-30T11:56:19;4.10;;;1.10;;
19877;SDS011;10101;52.204;9.910;2023-03-30T11:58:57;5.27;;;1.30;;
19877;SDS011;10101;52.204;9.910;2023-03-30T12:04:36;3.37;;;1.10;;
19877;SDS011;10101;52.204;9.910;2023-03-30T12:07:10;4.17;;;1.10;;
19877;SDS011;10101;52.204;9.910;2023-03-30T12:09:49;5.73;;;1.57;;
19877;SDS011;10101;52.204;9.910;2023-03-30T12:12:21;4.37;;;1.63;;
19877;SDS011;10101;52.204;9.910;2023-03-30T12:14:57;6.47;;;1.53;;
19877;SDS011;10101;52.204;9.910;2023-03-30T12:17:41;4.47;;;1.20;;
19877;SDS011;10101;52.204;9.910;2023-03-30T12:20:16;6.00;;;1.47;;
19877;SDS011;10101;52.204;9.910;2023-03-30T12:22:54;4.70;;;1.40;;
19877;SDS011;10101;52.204;9.910;2023-03-30T12:25:26;3.80;;;1.27;;
19877;SDS011;10101;52.204;9.910;2023-03-30T12:28:02;2.60;;;1.30;;
19877;SDS011;10101;52.204;9.910;2023-03-30T12:30:43;5.93;;;1.40;;
19877;SDS011;10101;52.204;9.910;2023-03-30T12:33:19;6.53;;;1.57;;
19877;SDS011;10101;52.204;9.910;2023-03-30T12:35:54;4.87;;;1.50;;
19877;SDS011;10101;52.204;9.910;2023-03-30T12:38:26;5.07;;;1.63;;
19877;SDS011;10101;52.204;9.910;2023-03-30T12:41:04;3.27;;;1.60;;
19877;SDS011;10101;52.204;9.910;2023-03-30T12:43:46;3.33;;;1.43;;
19877;SDS011;10101;52.204;9.910;2023-03-30T12:46:31;6.57;;;1.50;;
19877;SDS011;10101;52.204;9.910;2023-03-30T12:49:06;5.27;;;1.00;;
19877;SDS011;10101;52.204;9.910;2023-03-30T12:51:46;5.37;;;1.20;;
19877;SDS011;10101;52.204;9.910;2023-03-30T12:54:36;4.20;;;1.07;;
19877;SDS011;10101;52.204;9.910;2023-03-30T12:57:27;2.77;;;1.20;;
19877;SDS011;10101;52.204;9.910;2023-03-30T13:00:17;2.77;;;1.00;;
19877;SDS011;10101;52.204;9.910;2023-03-30T13:03:17;3.67;;;1.23;;
19877;SDS011;10101;52.204;9.910;2023-03-30T13:05:58;2.47;;;1.13;;
19877;SDS011;10101;52.204;9.910;2023-03-30T13:08:29;3.13;;;1.13;;
19877;SDS011;10101;52.204;9.910;2023-03-30T13:11:05;2.47;;;1.27;;
19877;SDS011;10101;52.204;9.910;2023-03-30T13:13:44;2.47;;;1.20;;
19877;SDS011;10101;52.204;9.910;2023-03-30T13:19:13;1.97;;;0.93;;
19877;SDS011;10101;52.204;9.910;2023-03-30T13:21:53;4.87;;;0.90;;
19877;SDS011;10101;52.204;9.910;2023-03-30T13:24:31;2.80;;;0.93;;
19877;SDS011;10101;52.204;9.910;2023-03-30T13:27:21;2.90;;;0.80;;
19877;SDS011;10101;52.204;9.910;2023-03-30T13:29:53;3.93;;;1.03;;
19877;SDS011;10101;52.204;9.910;2023-03-30T13:32:24;4.40;;;0.93;;
19877;SDS011;10101;52.204;9.910;2023-03-30T13:35:03;4.30;;;1.00;;
19877;SDS011;10101;52.204;9.910;2023-03-30T13:37:59;2.20;;;0.70;;
19877;SDS011;10101;52.204;9.910;2023-03-30T13:40:54;4.13;;;1.07;;
19877;SDS011;10101;52.204;9.910;2023-03-30T13:43:29;4.77;;;1.00;;
19877;SDS011;10101;52.204;9.910;2023-03-30T13:46:06;4.57;;;1.03;;
19877;SDS011;10101;52.204;9.910;2023-03-30T13:48:42;1.70;;;1.10;;
19877;SDS011;10101;52.204;9.910;2023-03-30T13:51:19;3.57;;;0.83;;
19877;SDS011;10101;52.204;9.910;2023-03-30T13:53:51;6.73;;;1.10;;
19877;SDS011;10101;52.204;9.910;2023-03-30T13:56:22;2.77;;;1.07;;
19877;SDS011;10101;52.204;9.910;2023-03-30T13:58:53;3.90;;;1.10;;
19877;SDS011;10101;52.204;9.910;2023-03-30T14:01:26;4.37;;;1.00;;
19877;SDS011;10101;52.204;9.910;2023-03-30T14:03:53;7.10;;;1.17;;
19877;SDS011;10101;52.204;9.910;2023-03-30T14:06:26;4.33;;;1.10;;
19877;SDS011;10101;52.204;9.910;2023-03-30T14:08:58;7.97;;;1.23;;
19877;SDS011;10101;52.204;9.910;2023-03-30T14:11:36;1.60;;;1.10;;
19877;SDS011;10101;52.204;9.910;2023-03-30T14:14:05;3.30;;;1.33;;
19877;SDS011;10101;52.204;9.910;2023-03-30T14:16:32;3.87;;;1.30;;
19877;SDS011;10101;52.204;9.910;2023-03-30T14:19:03;2.20;;;1.10;;
19877;SDS011;10101;52.204;9.910;2023-03-30T14:21:36;3.77;;;1.27;;
19877;SDS011;10101;52.204;9.910;2023-03-30T14:24:04;3.77;;;1.20;;
19877;SDS011;10101;52.204;9.910;2023-03-30T14:26:37;3.37;;;0.83;;
19877;SDS011;10101;52.204;9.910;2023-03-30T14:29:08;5.40;;;1.30;;
19877;SDS011;10101;52.204;9.910;2023-03-30T14:31:41;2.67;;;0.73;;
19877;SDS011;10101;52.204;9.910;2023-03-30T14:34:21;5.70;;;1.10;;
19877;SDS011;10101;52.204;9.910;2023-03-30T14:36:50;3.57;;;1.53;;
19877;SDS011;10101;52.204;9.910;2023-03-30T14:39:17;6.43;;;2.40;;
19877;SDS011;10101;52.204;9.910;2023-03-30T14:41:48;7.73;;;2.97;;
19877;SDS011;10101;52.204;9.910;2023-03-30T14:44:16;3.60;;;1.50;;
19877;SDS011;10101;52.204;9.910;2023-03-30T14:46:45;2.90;;;1.10;;
19877;SDS011;10101;52.204;9.910;2023-03-30T14:49:16;6.27;;;1.37;;
19877;SDS011;10101;52.204;9.910;2023-03-30T14:51:46;4.07;;;1.30;;
19877;SDS011;10101;52.204;9.910;2023-03-30T14:54:15;6.70;;;2.47;;
19877;SDS011;10101;52.204;9.910;2023-03-30T14:56:46;6.13;;;2.30;;
19877;SDS011;10101;52.204;9.910;2023-03-30T14:59:21;4.80;;;1.40;;
19877;SDS011;10101;52.204;9.910;2023-03-30T15:01:48;8.50;;;2.43;;
19877;SDS011;10101;52.204;9.910;2023-03-30T15:04:16;4.33;;;1.30;;
19877;SDS011;10101;52.204;9.910;2023-03-30T15:06:44;7.90;;;3.60;;
19877;SDS011;10101;52.204;9.910;2023-03-30T15:09:13;7.70;;;2.23;;
19877;SDS011;10101;52.204;9.910;2023-03-30T15:11:41;8.17;;;1.97;;
19877;SDS011;10101;52.204;9.910;2023-03-30T15:14:13;11.10;;;2.67;;
19877;SDS011;10101;52.204;9.910;2023-03-30T15:16:43;3.50;;;1.70;;
19877;SDS011;10101;52.204;9.910;2023-03-30T15:19:12;8.37;;;1.90;;
19877;SDS011;10101;52.204;9.910;2023-03-30T15:21:48;7.23;;;2.50;;
19877;SDS011;10101;52.204;9.910;2023-03-30T15:24:16;4.43;;;1.67;;